Time;durP1;ratioP1;P1;durP2;ratioP2;P2;SDS_P1;SDS_P2;PMS_P1;PMS_P2;Temp;Humidity;BMP_temperature;BMP_pressure;BME280_temperature;BME280_humidity;BME280_pressure;Samples;Min_cycle;Max_cycle;Signal;HPM_P1;HPM_P2
2022/02/03 00:02:28;;;;;;;3.47;1.60;;;;;;;7.01;97.72;96910.47;5036247;28;20239;-71
2022/02/03 00:05:01;;;;;;;5.77;1.97;;;;;;;7.02;98.39;96904.25;5036365;28;20295;-71
2022/02/03 00:07:37;;;;;;;3.13;1.73;;;;;;;7.16;98.14;96906.44;5037021;28;20426;-71
2022/02/03 00:24:18;;;;;;;3.47;2.20;;;;;;;7.30;97.52;96912.06;5035684;28;20236;-71
2022/02/03 00:26:52;;;;;;;4.70;2.27;;;;;;;7.33;97.62;96906.56;5036601;28;20269;-71
2022/02/03 00:29:38;;;;;;;5.53;2.03;;;;;;;7.15;97.72;96904.78;5036035;28;20232;-71
2022/02/03 00:32:13;;;;;;;3.27;2.07;;;;;;;7.30;98.18;96909.44;5036626;28;20295;-71
2022/02/03 00:34:50;;;;;;;5.43;2.23;;;;;;;7.25;98.18;96900.38;5035823;28;20343;-71
2022/02/03 00:37:33;;;;;;;3.60;1.87;;;;;;;7.32;97.61;96904.91;5036274;28;20278;-71
2022/02/03 00:48:21;;;;;;;3.03;1.87;;;;;;;7.26;97.49;96897.59;5035727;28;20240;-71
2022/02/03 00:50:51;;;;;;;2.97;1.77;;;;;;;7.37;98.25;96900.06;5035713;28;20217;-72
2022/02/03 00:53:19;;;;;;;4.03;2.13;;;;;;;7.18;98.84;96895.81;5034966;28;20209;-72
2022/02/03 00:55:51;;;;;;;7.13;2.87;;;;;;;7.45;97.94;96894.94;5035955;28;20208;-71
2022/02/03 00:58:23;;;;;;;3.03;2.13;;;;;;;7.32;98.05;96896.22;5035619;28;20221;-71
2022/02/03 01:00:52;;;;;;;2.33;1.67;;;;;;;7.21;97.82;96895.56;5036704;28;20216;-71
2022/02/03 01:03:22;;;;;;;2.97;1.77;;;;;;;7.33;97.47;96898.72;5035389;28;20216;-71
2022/02/03 01:05:51;;;;;;;3.20;2.23;;;;;;;7.33;97.79;96905.72;5035372;28;20201;-71
2022/02/03 01:08:20;;;;;;;2.33;1.60;;;;;;;7.21;98.47;96898.19;5035920;28;20225;-71
2022/02/03 01:10:55;;;;;;;3.17;1.80;;;;;;;7.34;98.24;96900.38;5032644;28;20259;-71
2022/02/03 01:13:37;;;;;;;4.00;2.90;;;;;;;7.42;98.06;96902.25;5035621;28;20205;-71
2022/02/03 01:16:11;;;;;;;2.13;1.60;;;;;;;7.30;98.09;96898.97;5034903;28;20212;-72
2022/02/03 01:19:04;;;;;;;3.07;1.90;;;;;;;7.22;98.06;96889.31;5036636;28;20231;-71
2022/02/03 01:35:16;;;;;;;2.57;1.90;;;;;;;7.40;97.89;96878.81;5038914;28;20205;-71
2022/02/03 01:43:10;;;;;;;4.43;2.47;;;;;;;7.39;98.86;96889.44;5039210;28;20201;-71
2022/02/03 01:43:29;;;;;;;2.73;2.10;;;;;;;7.47;98.63;96890.41;5038766;28;21359;-71
2022/02/03 01:45:58;;;;;;;4.03;2.10;;;;;;;7.11;99.56;96889.50;5038576;28;20204;-72
2022/02/03 01:48:40;;;;;;;3.13;2.27;;;;;;;7.32;99.57;96891.00;5039585;28;21058;-71
2022/02/03 01:54:06;;;;;;;5.23;2.47;;;;;;;7.35;99.41;96881.03;5015894;28;20788;-71
2022/02/03 01:56:38;;;;;;;4.40;1.97;;;;;;;7.59;98.68;96870.06;5016466;28;20214;-71
2022/02/03 01:59:18;;;;;;;4.50;2.93;;;;;;;7.47;99.22;96869.41;5026611;28;20225;-71
2022/02/03 02:01:47;;;;;;;3.33;1.97;;;;;;;7.44;99.61;96874.09;5039206;28;20211;-72
2022/02/03 02:04:24;;;;;;;5.97;2.50;;;;;;;7.61;98.96;96870.72;5038226;28;20220;-71
2022/02/03 02:07:20;;;;;;;6.70;2.83;;;;;;;7.62;99.50;96873.22;5037997;28;21145;-71
2022/02/03 02:10:08;;;;;;;4.30;2.00;;;;;;;7.61;99.56;96862.88;5030980;28;20233;-71
2022/02/03 02:12:54;;;;;;;6.53;2.50;;;;;;;7.62;99.93;96862.72;5037558;28;20219;-71
2022/02/03 02:15:55;;;;;;;5.67;2.97;;;;;;;7.64;99.60;96855.53;5038621;28;20324;-71
2022/02/03 02:18:48;;;;;;;4.80;2.23;;;;;;;7.53;100.00;96857.53;5038721;28;20225;-72
2022/02/03 02:38:15;;;;;;;4.50;2.50;;;;;;;7.74;99.57;96858.97;5037826;28;20232;-71
2022/02/03 02:43:52;;;;;;;7.70;3.10;;;;;;;7.72;99.91;96853.00;4996040;28;20206;-71
2022/02/03 02:46:23;;;;;;;5.60;3.10;;;;;;;7.73;100.00;96852.06;4996252;28;20221;-72
2022/02/03 02:49:08;;;;;;;3.50;2.10;;;;;;;7.72;100.00;96847.78;5016613;28;20974;-71
2022/02/03 02:51:43;;;;;;;6.17;3.23;;;;;;;7.71;100.00;96840.06;5038457;28;20315;-72
2022/02/03 02:54:45;;;;;;;7.63;2.77;;;;;;;7.60;100.00;96834.97;5036880;28;20205;-71
2022/02/03 02:57:43;;;;;;;6.93;2.87;;;;;;;7.40;100.00;96836.84;5038162;28;20201;-72
2022/02/03 03:03:42;;;;;;;4.33;2.30;;;;;;;7.69;100.00;96826.25;5036826;28;20202;-71
2022/02/03 03:31:34;;;;;;;3.37;2.10;;;;;;;7.70;100.00;96823.50;5037441;28;20258;-71
2022/02/03 03:34:11;;;;;;;8.07;3.53;;;;;;;7.68;100.00;96825.44;5036313;28;20213;-71
2022/02/03 03:36:41;;;;;;;6.60;3.27;;;;;;;7.70;100.00;96823.50;5037063;28;20600;-71
2022/02/03 03:39:11;;;;;;;9.10;3.83;;;;;;;7.47;100.00;96814.34;5037379;28;20232;-71
2022/02/03 03:41:43;;;;;;;7.30;2.90;;;;;;;7.64;100.00;96807.53;5036969;28;20212;-71
2022/02/03 03:44:14;;;;;;;9.03;3.37;;;;;;;7.66;100.00;96806.41;5036345;28;20206;-71
2022/02/03 03:46:42;;;;;;;7.03;3.37;;;;;;;7.67;100.00;96801.97;5037216;28;20217;-71
2022/02/03 03:49:26;;;;;;;6.43;2.97;;;;;;;7.73;100.00;96807.47;5038571;28;20233;-71
2022/02/03 03:52:01;;;;;;;6.73;2.87;;;;;;;7.76;100.00;96809.78;5039634;28;20208;-70
2022/02/03 03:54:35;;;;;;;7.73;4.17;;;;;;;7.73;100.00;96801.41;5039369;28;20291;-71
2022/02/03 03:57:13;;;;;;;11.00;4.00;;;;;;;7.75;100.00;96797.66;5038160;28;20228;-71
2022/02/03 04:00:16;;;;;;;8.53;4.37;;;;;;;7.73;100.00;96786.47;5036270;28;21247;-70
2022/02/03 04:29:10;;;;;;;8.07;2.77;;;;;;;7.92;100.00;96787.19;5037945;28;20286;-71
2022/02/03 04:55:37;;;;;;;7.87;4.37;;;;;;;7.92;100.00;96781.94;5028741;28;20207;-71
2022/02/03 05:01:39;;;;;;;6.67;3.47;;;;;;;7.92;100.00;96781.13;5037940;28;20304;-70
2022/02/03 05:04:32;;;;;;;9.10;3.77;;;;;;;7.83;100.00;96770.66;5037660;28;20673;-71
2022/02/03 05:07:22;;;;;;;10.30;4.63;;;;;;;8.03;100.00;96776.50;5037995;28;20351;-71
2022/02/03 05:10:09;;;;;;;9.30;4.07;;;;;;;8.05;100.00;96771.91;5038257;28;20324;-70
2022/02/03 05:13:14;;;;;;;8.47;3.23;;;;;;;8.00;100.00;96766.25;5041779;28;20673;-71
2022/02/03 05:16:16;;;;;;;8.30;3.07;;;;;;;8.07;100.00;96769.13;5042305;28;20339;-70
2022/02/03 05:19:20;;;;;;;15.43;5.73;;;;;;;8.09;100.00;96762.75;5041875;28;20224;-71
2022/02/03 05:25:32;;;;;;;21.97;7.57;;;;;;;8.07;100.00;96754.22;5041483;28;20317;-71
2022/02/03 05:43:39;;;;;;;9.97;3.90;;;;;;;8.13;100.00;96726.53;5039786;28;20229;-71
2022/02/03 05:46:37;;;;;;;14.27;4.33;;;;;;;8.13;100.00;96734.41;5040622;28;20212;-71
2022/02/03 05:49:28;;;;;;;11.57;4.77;;;;;;;8.01;100.00;96733.00;5039852;28;20701;-71
2022/02/03 06:03:37;;;;;;;12.73;4.93;;;;;;;8.06;100.00;96736.00;5040426;28;20228;-71
2022/02/03 06:06:25;;;;;;;10.43;4.37;;;;;;;7.85;100.00;96734.63;5038296;28;20216;-71
2022/02/03 06:09:00;;;;;;;10.50;4.13;;;;;;;8.06;100.00;96731.56;5037878;28;20236;-70
2022/02/03 06:14:21;;;;;;;8.80;4.03;;;;;;;8.10;100.00;96725.03;5018868;28;20213;-71
2022/02/03 06:17:02;;;;;;;18.13;5.30;;;;;;;8.01;100.00;96719.88;5040676;28;20211;-71
2022/02/03 06:22:26;;;;;;;8.37;3.33;;;;;;;8.07;100.00;96727.97;5040391;28;20266;-71
2022/02/03 06:27:38;;;;;;;10.57;3.67;;;;;;;7.78;100.00;96723.91;5039186;28;20757;-70
2022/02/03 06:30:06;;;;;;;12.20;4.77;;;;;;;7.97;100.00;96714.09;5039169;28;20316;-70
2022/02/03 06:32:33;;;;;;;12.37;4.83;;;;;;;8.02;100.00;96709.22;5038061;28;20197;-70
2022/02/03 06:35:00;;;;;;;9.70;4.07;;;;;;;8.25;100.00;96709.59;5038822;28;20900;-71
2022/02/03 06:37:27;;;;;;;6.97;3.23;;;;;;;8.05;100.00;96708.91;5039761;28;20201;-71
2022/02/03 06:39:54;;;;;;;11.03;4.40;;;;;;;8.08;100.00;96708.63;5040270;28;20197;-70
2022/02/03 06:42:20;;;;;;;9.83;4.23;;;;;;;8.08;100.00;96708.63;5040080;28;20209;-71
2022/02/03 06:44:51;;;;;;;7.57;3.93;;;;;;;8.15;100.00;96699.19;5041204;28;20205;-70
2022/02/03 06:47:25;;;;;;;13.93;6.03;;;;;;;8.11;100.00;96694.38;5041951;28;20212;-71
2022/02/03 06:49:59;;;;;;;16.97;5.37;;;;;;;8.14;100.00;96692.28;5040907;28;20233;-71
2022/02/03 06:52:42;;;;;;;8.93;4.10;;;;;;;8.28;100.00;96689.13;5040675;28;20196;-71
2022/02/03 06:55:13;;;;;;;12.60;4.27;;;;;;;8.05;100.00;96698.41;5041656;28;20251;-71
2022/02/03 06:57:45;;;;;;;17.70;5.67;;;;;;;8.12;100.00;96696.84;5040332;28;20750;-71
2022/02/03 07:00:18;;;;;;;9.37;4.47;;;;;;;8.21;100.00;96700.38;5040836;28;20347;-71
2022/02/03 07:02:47;;;;;;;9.17;5.03;;;;;;;8.17;100.00;96696.41;5039983;28;20200;-71
2022/02/03 07:05:14;;;;;;;11.33;4.70;;;;;;;8.11;100.00;96692.56;5041271;28;20233;-71
2022/02/03 07:07:42;;;;;;;11.40;5.17;;;;;;;8.39;100.00;96688.06;5041010;28;20321;-71
2022/02/03 07:10:11;;;;;;;12.57;5.70;;;;;;;8.31;100.00;96688.84;5037383;28;20255;-70
2022/02/03 07:12:38;;;;;;;14.90;5.20;;;;;;;8.08;100.00;96689.41;5039251;28;20224;-70
2022/02/03 07:15:07;;;;;;;12.10;5.40;;;;;;;7.93;100.00;96677.81;5041306;28;20209;-71
2022/02/03 07:17:34;;;;;;;5.47;3.60;;;;;;;8.08;100.00;96679.75;5040569;28;20201;-71
2022/02/03 07:20:03;;;;;;;10.93;4.90;;;;;;;8.22;100.00;96688.91;5040724;28;20693;-71
2022/02/03 07:22:31;;;;;;;11.03;4.73;;;;;;;8.36;100.00;96683.13;5039255;28;20737;-71
2022/02/03 07:24:59;;;;;;;8.57;4.23;;;;;;;8.58;100.00;96689.53;5040570;28;20228;-71
2022/02/03 07:27:27;;;;;;;6.93;3.47;;;;;;;8.60;100.00;96686.75;5041422;28;20224;-71
2022/02/03 07:29:54;;;;;;;12.10;3.83;;;;;;;8.67;100.00;96680.72;5039653;28;20225;-71
2022/02/03 07:32:22;;;;;;;11.70;5.13;;;;;;;8.64;100.00;96691.56;5038841;28;20212;-71
2022/02/03 07:34:50;;;;;;;9.43;4.10;;;;;;;8.56;100.00;96691.47;5039787;28;20205;-70
2022/02/03 07:37:17;;;;;;;10.97;4.47;;;;;;;8.64;100.00;96686.28;5040237;28;20227;-70
2022/02/03 07:39:44;;;;;;;9.80;4.83;;;;;;;8.62;100.00;96693.50;5039401;28;20562;-70
2022/02/03 07:42:13;;;;;;;9.03;4.20;;;;;;;8.69;100.00;96686.66;5039199;28;20697;-71
2022/02/03 07:44:39;;;;;;;10.00;4.67;;;;;;;8.61;100.00;96676.06;5039755;28;20206;-72
2022/02/03 07:47:07;;;;;;;10.63;5.13;;;;;;;8.71;100.00;96671.53;5039757;28;20565;-70
2022/02/03 07:49:34;;;;;;;11.57;4.53;;;;;;;8.82;100.00;96673.94;5039177;28;20236;-71
2022/02/03 07:52:01;;;;;;;9.73;4.87;;;;;;;8.79;100.00;96679.47;5038704;28;20202;-70
2022/02/03 07:54:29;;;;;;;12.10;5.23;;;;;;;8.88;100.00;96682.97;5040233;28;20205;-71
2022/02/03 07:56:55;;;;;;;7.53;3.63;;;;;;;8.60;100.00;96690.22;5037004;28;20719;-70
2022/02/03 07:59:23;;;;;;;10.17;4.17;;;;;;;8.90;100.00;96688.91;5038171;28;20232;-71
2022/02/03 08:01:50;;;;;;;10.20;4.37;;;;;;;8.73;100.00;96690.63;5038875;28;20219;-71
2022/02/03 08:04:20;;;;;;;8.07;4.40;;;;;;;8.75;100.00;96683.38;5036457;28;21120;-71
2022/02/03 08:06:47;;;;;;;11.73;4.70;;;;;;;8.67;100.00;96685.16;5038913;28;20212;-71
2022/02/03 08:09:21;;;;;;;14.50;6.27;;;;;;;8.71;100.00;96676.81;5035247;28;20237;-72
2022/02/03 08:11:50;;;;;;;19.57;5.87;;;;;;;8.56;100.00;96683.59;5038061;28;20220;-70
2022/02/03 08:14:20;;;;;;;9.53;3.80;;;;;;;8.42;100.00;96674.66;5036788;28;20292;-71
2022/02/03 08:16:52;;;;;;;8.60;4.30;;;;;;;8.87;100.00;96674.28;5038643;28;20215;-71
2022/02/03 08:19:24;;;;;;;11.07;4.30;;;;;;;8.63;100.00;96679.38;5037255;28;20225;-71
2022/02/03 08:21:58;;;;;;;16.23;5.07;;;;;;;8.76;100.00;96676.34;5038172;28;20665;-71
2022/02/03 08:24:28;;;;;;;13.93;4.93;;;;;;;8.63;100.00;96674.13;5037636;28;20196;-71
2022/02/03 08:27:35;;;;;;;10.87;4.47;;;;;;;8.76;100.00;96669.28;5038439;28;20291;-71
2022/02/03 08:30:30;;;;;;;12.83;4.53;;;;;;;8.94;100.00;96670.03;5036465;28;20224;-71
2022/02/03 08:33:00;;;;;;;9.13;3.73;;;;;;;9.08;100.00;96663.38;5035840;28;20204;-72
2022/02/03 08:35:36;;;;;;;7.40;3.47;;;;;;;8.79;100.00;96666.34;5036841;28;20201;-71
2022/02/03 08:38:13;;;;;;;10.73;4.27;;;;;;;8.78;100.00;96656.81;5035978;28;20606;-71
2022/02/03 08:40:58;;;;;;;14.50;3.83;;;;;;;9.01;100.00;96655.28;5036515;28;20677;-71
2022/02/03 08:43:25;;;;;;;9.50;3.83;;;;;;;8.92;100.00;96637.81;5035829;28;20670;-71
2022/02/03 08:45:52;;;;;;;9.33;2.93;;;;;;;9.11;100.00;96621.81;5036360;28;20209;-71
2022/02/03 08:48:20;;;;;;;8.80;4.13;;;;;;;9.19;100.00;96621.88;5037011;28;20233;-71
2022/02/03 08:50:47;;;;;;;12.13;5.40;;;;;;;9.15;100.00;96620.50;5035834;28;20232;-71
2022/02/03 08:53:17;;;;;;;14.13;4.97;;;;;;;8.92;100.00;96610.72;5035064;28;20197;-71
2022/02/03 08:55:53;;;;;;;8.37;3.57;;;;;;;9.13;100.00;96610.16;5037483;28;20259;-71
2022/02/03 09:35:13;;;;;;;11.00;3.87;;;;;;;9.28;99.25;96603.31;5032602;28;20355;-71
2022/02/03 09:38:15;;;;;;;9.10;4.37;;;;;;;9.46;98.74;96600.56;5038367;28;20315;-71
2022/02/03 09:52:16;;;;;;;10.50;3.80;;;;;;;9.31;96.37;96589.00;5035632;28;20216;-71
2022/02/03 09:55:06;;;;;;;6.33;3.00;;;;;;;9.60;95.98;96577.06;5035803;28;20283;-71
2022/02/03 09:57:40;;;;;;;5.73;3.10;;;;;;;9.37;96.68;96576.03;5038657;28;20228;-71
2022/02/03 10:00:27;;;;;;;14.73;4.17;;;;;;;9.65;94.53;96564.25;5037327;28;21185;-71
2022/02/03 10:02:58;;;;;;;11.27;3.90;;;;;;;9.52;96.08;96571.81;5036878;28;20201;-71
2022/02/03 10:05:32;;;;;;;7.10;3.40;;;;;;;9.63;95.46;96560.13;5038206;28;20589;-71
2022/02/03 10:07:58;;;;;;;7.10;2.70;;;;;;;9.38;95.11;96566.34;5038883;28;20319;-71
2022/02/03 10:10:29;;;;;;;9.57;3.27;;;;;;;9.61;93.49;96559.47;5033633;28;20604;-71
2022/02/03 10:12:55;;;;;;;7.13;2.93;;;;;;;9.31;94.79;96567.97;5037143;28;20205;-71
2022/02/03 10:15:23;;;;;;;9.00;4.10;;;;;;;9.69;93.40;96573.47;5038319;28;20574;-71
2022/02/03 10:17:51;;;;;;;7.57;3.67;;;;;;;9.36;94.82;96576.22;5037562;28;20296;-71
2022/02/03 10:20:21;;;;;;;12.97;4.30;;;;;;;9.61;94.11;96556.84;5038103;28;20216;-71
2022/02/03 10:22:51;;;;;;;10.20;3.57;;;;;;;9.55;94.40;96549.63;5037522;28;20208;-71
2022/02/03 10:25:24;;;;;;;9.63;3.53;;;;;;;9.61;94.33;96548.94;5037743;28;20315;-71
2022/02/03 10:28:00;;;;;;;5.73;2.77;;;;;;;9.47;95.35;96534.63;5037406;28;20318;-70
2022/02/03 10:30:32;;;;;;;8.33;3.10;;;;;;;9.22;94.19;96532.13;5037141;28;20236;-70
2022/02/03 10:32:59;;;;;;;6.37;3.47;;;;;;;9.52;94.22;96531.50;5036673;28;20203;-70
2022/02/03 10:35:32;;;;;;;6.23;2.97;;;;;;;9.66;94.55;96528.22;5038150;28;20205;-70
2022/02/03 10:38:08;;;;;;;9.93;3.77;;;;;;;9.86;93.62;96520.66;5037345;28;20229;-71
2022/02/03 10:40:56;;;;;;;7.90;2.63;;;;;;;9.81;94.32;96517.72;5038295;28;20212;-71
2022/02/03 10:43:57;;;;;;;7.67;2.90;;;;;;;9.89;93.57;96514.22;5037063;28;20674;-71
2022/02/03 10:49:24;;;;;;;5.33;3.03;;;;;;;9.92;92.46;96509.47;5036700;28;20235;-71
2022/02/03 10:52:31;;;;;;;5.57;2.27;;;;;;;10.34;91.39;96516.16;5037909;28;20244;-71
2022/02/03 10:58:29;;;;;;;5.10;2.90;;;;;;;10.40;90.31;96525.22;5001155;28;20285;-71
2022/02/03 11:04:00;;;;;;;3.80;1.93;;;;;;;10.12;90.50;96510.78;5022831;28;20209;-71
2022/02/03 11:06:31;;;;;;;6.13;2.50;;;;;;;10.00;90.83;96503.41;5038490;28;20209;-71
2022/02/03 11:09:08;;;;;;;3.90;2.23;;;;;;;9.68;91.19;96492.88;5033752;28;20225;-71
2022/02/03 11:11:38;;;;;;;3.57;2.10;;;;;;;9.70;91.86;96499.63;5038083;28;20241;-71
2022/02/03 11:14:05;;;;;;;2.87;1.87;;;;;;;9.89;90.73;96478.22;5036532;28;20205;-71
2022/02/03 11:16:38;;;;;;;4.93;2.50;;;;;;;10.29;89.94;96474.72;5038104;28;20197;-71
2022/02/03 11:19:09;;;;;;;6.27;2.33;;;;;;;10.30;88.34;96465.78;5037217;28;20229;-71
2022/02/03 11:21:37;;;;;;;6.33;3.50;;;;;;;10.31;88.04;96465.66;5038417;28;20205;-72
2022/02/03 11:24:08;;;;;;;7.27;3.00;;;;;;;10.35;88.35;96465.13;5036384;28;20235;-71
2022/02/03 11:26:45;;;;;;;5.10;2.10;;;;;;;10.39;88.48;96473.50;5037667;28;20216;-71
2022/02/03 11:32:24;;;;;;;5.10;2.87;;;;;;;11.13;86.19;96442.97;5034245;28;20313;-71
2022/02/03 11:50:29;;;;;;;4.23;1.53;;;;;;;10.84;84.65;96353.19;5025590;28;20227;-71
2022/02/03 11:53:15;;;;;;;4.73;2.23;;;;;;;11.05;84.48;96358.66;5036124;28;20255;-71
2022/02/03 11:56:14;;;;;;;5.93;2.10;;;;;;;10.74;83.83;96365.78;5036352;28;20209;-71
2022/02/03 12:01:41;;;;;;;4.53;1.93;;;;;;;11.30;82.96;96355.63;5028918;28;20208;-70
2022/02/03 12:12:55;;;;;;;1.90;1.40;;;;;;;10.71;83.50;96331.06;5036471;28;20211;-70
2022/02/03 12:18:56;;;;;;;3.13;1.67;;;;;;;11.82;82.07;96322.13;5022192;28;20258;-70
2022/02/03 12:21:28;;;;;;;4.63;1.90;;;;;;;12.09;82.24;96324.13;5035795;28;20233;-70
2022/02/03 12:24:16;;;;;;;3.50;1.97;;;;;;;12.18;80.20;96308.81;5035658;28;20287;-70
2022/02/03 12:26:48;;;;;;;2.33;1.87;;;;;;;12.00;77.83;96315.47;5035754;28;20206;-69
2022/02/03 12:29:18;;;;;;;1.90;1.30;;;;;;;11.69;78.36;96296.38;5035754;28;20462;-70
2022/02/03 12:32:02;;;;;;;3.00;1.70;;;;;;;11.84;79.03;96273.44;5037955;28;20260;-70
2022/02/03 12:37:29;;;;;;;3.23;1.83;;;;;;;11.61;79.71;96277.19;5037062;28;20296;-70
2022/02/03 12:40:01;;;;;;;1.77;1.40;;;;;;;11.41;80.38;96276.03;5038394;28;20282;-70
2022/02/03 12:42:49;;;;;;;3.50;1.97;;;;;;;11.51;81.55;96260.78;5035970;28;20752;-70
2022/02/03 12:45:23;;;;;;;4.13;1.90;;;;;;;11.37;81.58;96264.22;5036009;28;20205;-70
2022/02/03 12:47:50;;;;;;;1.13;0.90;;;;;;;11.55;81.02;96267.34;5036022;28;20208;-70
2022/02/03 12:50:22;;;;;;;3.00;1.67;;;;;;;11.73;80.35;96262.50;5036483;28;21181;-70
2022/02/03 12:52:51;;;;;;;3.73;1.50;;;;;;;11.79;80.53;96254.69;5035404;28;20735;-71
2022/02/03 12:55:30;;;;;;;5.50;3.20;;;;;;;11.76;80.42;96241.84;5036684;28;20312;-70
2022/02/03 12:57:58;;;;;;;6.47;2.30;;;;;;;11.59;80.85;96239.59;5035685;28;20728;-70
2022/02/03 13:00:32;;;;;;;6.77;2.47;;;;;;;11.61;81.05;96245.50;5037302;28;20204;-70
2022/02/03 13:03:01;;;;;;;7.00;2.90;;;;;;;11.50;81.28;96238.03;5037939;28;20208;-70
2022/02/03 13:05:32;;;;;;;4.83;2.67;;;;;;;11.49;81.18;96225.00;5038085;28;20201;-71
2022/02/03 13:08:04;;;;;;;4.40;2.63;;;;;;;11.72;81.28;96226.56;5038236;28;20217;-70
2022/02/03 13:10:33;;;;;;;10.90;4.43;;;;;;;11.63;81.35;96236.41;5034959;28;20900;-70
2022/02/03 13:13:15;;;;;;;5.90;3.37;;;;;;;12.15;80.06;96226.47;5036239;28;20299;-70
2022/02/03 13:15:43;;;;;;;11.37;3.83;;;;;;;11.82;80.46;96227.09;5037478;28;20236;-70
2022/02/03 13:18:15;;;;;;;4.20;2.90;;;;;;;11.89;80.42;96212.13;5037051;28;20228;-70
2022/02/03 13:20:47;;;;;;;14.07;4.70;;;;;;;11.69;81.38;96205.81;5036615;28;20235;-70
2022/02/03 13:23:20;;;;;;;4.77;1.90;;;;;;;11.74;81.23;96195.53;5035742;28;20209;-70
2022/02/03 13:25:58;;;;;;;5.13;2.13;;;;;;;12.02;80.55;96202.56;5036205;28;20205;-70
2022/02/03 13:28:41;;;;;;;7.37;3.27;;;;;;;11.80;81.06;96208.78;5036244;28;20225;-70
2022/02/03 13:31:20;;;;;;;5.90;2.23;;;;;;;11.88;82.15;96192.84;5040734;28;20591;-71
2022/02/03 13:34:03;;;;;;;6.17;2.83;;;;;;;12.10;80.90;96177.84;5039770;28;20262;-70
2022/02/03 13:36:31;;;;;;;4.37;1.90;;;;;;;11.96;80.80;96173.44;5041066;28;20197;-71
2022/02/03 13:39:06;;;;;;;3.57;2.23;;;;;;;11.74;82.10;96169.94;5035333;28;20316;-71
2022/02/03 13:41:37;;;;;;;2.87;1.90;;;;;;;11.44;82.10;96174.59;5040356;28;20201;-71
2022/02/03 13:44:06;;;;;;;6.10;2.13;;;;;;;11.80;81.91;96178.91;5037992;28;20215;-70
2022/02/03 13:46:35;;;;;;;2.40;1.70;;;;;;;11.72;81.95;96181.69;5039860;28;20248;-71
2022/02/03 13:49:02;;;;;;;4.00;1.93;;;;;;;11.73;82.05;96193.88;5039528;28;20746;-71
2022/02/03 13:51:31;;;;;;;5.83;2.50;;;;;;;11.75;82.46;96189.25;5039632;28;20225;-71
2022/02/03 13:54:06;;;;;;;3.63;2.17;;;;;;;11.82;81.61;96184.84;5037234;28;20713;-71
2022/02/03 14:13:45;;;;;;;3.17;1.80;;;;;;;11.80;80.96;96153.34;5037823;28;20983;-70
2022/02/03 14:16:19;;;;;;;2.90;1.40;;;;;;;11.59;81.60;96144.56;5038799;28;20201;-70
2022/02/03 14:19:15;;;;;;;4.63;1.53;;;;;;;11.48;81.59;96145.03;5038105;28;20220;-71
2022/02/03 14:21:43;;;;;;;4.40;1.50;;;;;;;11.49;80.38;96151.13;5038511;28;20697;-71
2022/02/03 14:27:18;;;;;;;2.70;1.40;;;;;;;11.43;80.10;96168.50;5038689;28;20228;-70
2022/02/03 14:29:49;;;;;;;3.17;1.63;;;;;;;11.57;80.64;96162.44;5038625;28;20259;-71
2022/02/03 14:32:21;;;;;;;2.90;0.90;;;;;;;11.53;79.63;96137.38;5037503;28;20268;-71
2022/02/03 14:34:49;;;;;;;1.70;0.90;;;;;;;11.50;79.20;96137.75;5038552;28;20326;-71
2022/02/03 14:37:26;;;;;;;3.60;1.60;;;;;;;11.56;79.18;96134.41;5038716;28;20270;-71
2022/02/03 14:40:03;;;;;;;1.40;0.90;;;;;;;11.58;78.78;96122.66;5037925;28;20705;-71
2022/02/03 14:42:34;;;;;;;1.57;1.03;;;;;;;11.42;79.55;96122.03;5037249;28;20586;-70
2022/02/03 14:45:02;;;;;;;1.87;1.07;;;;;;;11.87;78.63;96113.81;5038334;28;20205;-71
2022/02/03 14:47:30;;;;;;;2.37;1.57;;;;;;;11.74;78.42;96111.06;5038388;28;20456;-71
2022/02/03 14:50:00;;;;;;;1.90;0.97;;;;;;;11.83;78.22;96118.66;5037473;28;20221;-71
2022/02/03 14:52:30;;;;;;;2.43;1.20;;;;;;;11.90;78.09;96129.28;5037414;28;20221;-70
2022/02/03 15:00:28;;;;;;;2.93;1.70;;;;;;;11.95;78.34;96122.44;5037971;28;20461;-70
2022/02/03 15:02:55;;;;;;;2.43;1.90;;;;;;;11.70;78.67;96128.28;5036709;28;20201;-70
2022/02/03 15:05:26;;;;;;;1.47;0.87;;;;;;;11.68;78.43;96122.34;5037825;28;20696;-70
2022/02/03 15:07:57;;;;;;;2.43;1.20;;;;;;;11.51;78.77;96120.94;5038123;28;20229;-70
2022/02/03 15:10:41;;;;;;;1.83;1.20;;;;;;;11.64;78.68;96118.44;5036544;28;20296;-70
2022/02/03 15:13:12;;;;;;;1.20;1.03;;;;;;;11.54;79.16;96125.84;5040965;28;20201;-71
2022/02/03 15:15:40;;;;;;;2.23;1.20;;;;;;;11.57;79.80;96123.66;5039627;28;20263;-71
2022/02/03 15:18:08;;;;;;;4.00;1.27;;;;;;;11.30;80.43;96112.94;5038476;28;20710;-71
2022/02/03 15:20:35;;;;;;;5.63;2.43;;;;;;;11.42;80.29;96127.28;5037274;28;20213;-71
2022/02/03 15:23:02;;;;;;;30.63;8.67;;;;;;;11.42;80.04;96124.66;5036627;28;20372;-70
2022/02/03 15:25:29;;;;;;;33.63;12.17;;;;;;;11.34;80.49;96111.56;5038443;28;20212;-71
2022/02/03 15:27:55;;;;;;;20.97;6.60;;;;;;;11.31;80.63;96119.84;5036769;28;20227;-71
2022/02/03 15:30:23;;;;;;;21.43;6.57;;;;;;;11.24;80.80;96131.31;5037092;28;20491;-70
2022/02/03 15:32:51;;;;;;;15.17;6.13;;;;;;;11.17;80.92;96114.59;5036525;28;20592;-71
2022/02/03 15:35:24;;;;;;;6.27;2.63;;;;;;;11.11;80.89;96120.59;5037662;28;20234;-70
2022/02/03 15:37:52;;;;;;;6.73;3.40;;;;;;;11.05;81.32;96119.50;5036775;28;20221;-70
2022/02/03 15:40:21;;;;;;;7.57;3.10;;;;;;;11.04;80.89;96107.31;5037504;28;20205;-71
2022/02/03 15:42:57;;;;;;;5.33;2.63;;;;;;;11.11;81.00;96120.59;5036311;28;20197;-71
2022/02/03 15:45:24;;;;;;;9.20;4.33;;;;;;;10.77;82.30;96119.50;5037033;28;21042;-71
2022/02/03 15:47:56;;;;;;;6.80;3.80;;;;;;;10.95;82.21;96105.78;5036980;28;20213;-70
2022/02/03 15:50:53;;;;;;;6.77;3.43;;;;;;;10.83;82.01;96110.88;5036813;28;20674;-71
2022/02/03 16:00:00;;;;;;;8.50;3.40;;;;;;;10.48;84.08;96098.41;5022293;28;20690;-70
2022/02/03 16:18:21;;;;;;;3.57;1.30;;;;;;;9.97;85.88;96085.22;5035516;28;20278;-70
2022/02/03 16:20:55;;;;;;;3.23;1.30;;;;;;;9.93;86.87;96095.22;5037232;28;20205;-70
2022/02/03 16:23:45;;;;;;;11.57;2.23;;;;;;;9.62;88.02;96098.09;5035656;28;20201;-69
2022/02/03 16:51:01;;;;;;;3.83;1.80;;;;;;;9.31;90.31;96068.38;5037052;28;20300;-71
2022/02/03 16:53:29;;;;;;;3.97;2.00;;;;;;;9.58;89.79;96067.88;5036027;28;20271;-72
2022/02/03 16:55:57;;;;;;;7.77;2.07;;;;;;;9.35;90.40;96064.41;5036742;28;20205;-71
2022/02/03 16:58:24;;;;;;;2.50;1.40;;;;;;;9.40;90.12;96064.69;5036930;28;20221;-72
2022/02/03 17:00:51;;;;;;;2.90;1.50;;;;;;;9.14;91.58;96069.47;5037202;28;20205;-71
2022/02/03 17:03:17;;;;;;;2.77;1.63;;;;;;;9.38;90.67;96062.25;5036214;28;20197;-69
2022/02/03 17:05:44;;;;;;;2.50;1.50;;;;;;;9.51;90.65;96064.28;5040898;28;20211;-69
2022/02/03 17:08:11;;;;;;;2.00;1.50;;;;;;;9.47;90.29;96061.22;5040784;28;20713;-69
2022/02/03 17:10:38;;;;;;;1.87;1.30;;;;;;;9.62;90.48;96062.06;5038236;28;20201;-70
2022/02/03 17:13:05;;;;;;;3.13;1.43;;;;;;;9.53;90.11;96060.50;5040095;28;21014;-70
2022/02/03 17:15:32;;;;;;;5.63;2.20;;;;;;;9.52;90.76;96063.28;5041243;28;20670;-70
2022/02/03 17:17:58;;;;;;;2.87;1.93;;;;;;;9.39;91.06;96055.16;5040320;28;20235;-72
2022/02/03 17:20:29;;;;;;;3.73;1.67;;;;;;;9.35;91.74;96061.78;5041009;28;20212;-70
2022/02/03 17:22:56;;;;;;;11.47;3.83;;;;;;;9.33;91.01;96063.75;5040701;28;20211;-70
2022/02/03 17:25:29;;;;;;;3.07;2.27;;;;;;;9.36;91.42;96066.03;5040964;28;21104;-69
2022/02/03 17:28:02;;;;;;;7.37;2.63;;;;;;;9.57;90.67;96042.56;5038527;28;20229;-69
2022/02/03 17:30:33;;;;;;;3.30;1.87;;;;;;;9.43;90.40;96053.81;5040283;28;20209;-68
2022/02/03 17:52:51;;;;;;;5.90;2.87;;;;;;;9.21;91.54;96065.13;5036386;28;20669;-68
2022/02/03 18:06:51;;;;;;;6.93;3.67;;;;;;;9.09;91.87;96069.16;5039172;28;20229;-68
2022/02/03 18:09:20;;;;;;;14.27;5.27;;;;;;;9.11;91.53;96065.38;5036280;28;20235;-68
2022/02/03 18:11:57;;;;;;;10.43;4.27;;;;;;;9.11;91.79;96073.25;5039468;28;20221;-69
2022/02/03 18:17:31;;;;;;;10.83;4.67;;;;;;;9.17;92.11;96059.41;5037803;28;20263;-70
2022/02/03 18:30:59;;;;;;;13.73;6.30;;;;;;;9.03;92.57;96067.19;5036568;28;20243;-69
2022/02/03 18:34:02;;;;;;;13.00;4.37;;;;;;;9.10;92.70;96071.59;5035540;28;20224;-69
2022/02/03 18:36:46;;;;;;;13.50;4.97;;;;;;;9.12;91.72;96084.56;5037252;28;20208;-69
2022/02/03 18:50:24;;;;;;;8.07;2.80;;;;;;;9.19;92.52;96061.88;5034737;28;20215;-69
2022/02/03 18:53:05;;;;;;;7.43;4.03;;;;;;;8.89;93.20;96064.50;5035320;28;20229;-69
2022/02/03 18:55:38;;;;;;;3.67;2.07;;;;;;;9.08;92.82;96062.25;5037551;28;20204;-69